sensor_id;sensor_type;location;lat;lon;timestamp;P1;durP1;ratioP1;P2;durP2;ratioP2
16826;SDS011;8530;49.540;8.576;2023-08-20T00:00:22;6.23;;;5.50;;
16826;SDS011;8530;49.540;8.576;2023-08-20T00:02:50;8.43;;;6.03;;
16826;SDS011;8530;49.540;8.576;2023-08-20T00:05:23;8.10;;;5.57;;
16826;SDS011;8530;49.540;8.576;2023-08-20T00:07:51;7.03;;;6.33;;
16826;SDS011;8530;49.540;8.576;2023-08-20T00:10:17;7.93;;;5.83;;
16826;SDS011;8530;49.540;8.576;2023-08-20T00:12:44;7.23;;;6.53;;
16826;SDS011;8530;49.540;8.576;2023-08-20T00:15:11;9.20;;;6.40;;
16826;SDS011;8530;49.540;8.576;2023-08-20T00:17:40;5.70;;;5.13;;
16826;SDS011;8530;49.540;8.576;2023-08-20T00:20:08;14.53;;;5.80;;
16826;SDS011;8530;49.540;8.576;2023-08-20T00:22:37;8.10;;;5.30;;
16826;SDS011;8530;49.540;8.576;2023-08-20T00:25:05;7.77;;;6.20;;
16826;SDS011;8530;49.540;8.576;2023-08-20T00:27:33;8.80;;;6.20;;
16826;SDS011;8530;49.540;8.576;2023-08-20T00:30:00;6.10;;;5.50;;
16826;SDS011;8530;49.540;8.576;2023-08-20T00:32:28;13.77;;;5.70;;
16826;SDS011;8530;49.540;8.576;2023-08-20T00:34:56;6.63;;;5.87;;
16826;SDS011;8530;49.540;8.576;2023-08-20T00:37:22;6.30;;;5.37;;
16826;SDS011;8530;49.540;8.576;2023-08-20T00:39:49;6.50;;;5.77;;
16826;SDS011;8530;49.540;8.576;2023-08-20T00:42:16;9.97;;;6.53;;
16826;SDS011;8530;49.540;8.576;2023-08-20T00:44:42;8.60;;;5.93;;
16826;SDS011;8530;49.540;8.576;2023-08-20T00:47:10;9.43;;;5.20;;
16826;SDS011;8530;49.540;8.576;2023-08-20T00:49:38;9.10;;;6.47;;
16826;SDS011;8530;49.540;8.576;2023-08-20T00:52:07;7.43;;;6.00;;
16826;SDS011;8530;49.540;8.576;2023-08-20T00:54:35;8.23;;;6.47;;
16826;SDS011;8530;49.540;8.576;2023-08-20T00:57:02;8.27;;;6.53;;
16826;SDS011;8530;49.540;8.576;2023-08-20T00:59:28;10.10;;;6.40;;
16826;SDS011;8530;49.540;8.576;2023-08-20T01:01:57;11.80;;;6.03;;
16826;SDS011;8530;49.540;8.576;2023-08-20T01:04:24;8.47;;;5.90;;
16826;SDS011;8530;49.540;8.576;2023-08-20T01:06:53;6.53;;;5.37;;
16826;SDS011;8530;49.540;8.576;2023-08-20T01:09:30;8.27;;;6.77;;
16826;SDS011;8530;49.540;8.576;2023-08-20T01:12:07;12.27;;;6.60;;
16826;SDS011;8530;49.540;8.576;2023-08-20T01:14:36;8.30;;;6.10;;
16826;SDS011;8530;49.540;8.576;2023-08-20T01:17:02;7.40;;;6.67;;
16826;SDS011;8530;49.540;8.576;2023-08-20T01:19:30;11.70;;;5.90;;
16826;SDS011;8530;49.540;8.576;2023-08-20T01:22:13;7.33;;;6.60;;
16826;SDS011;8530;49.540;8.576;2023-08-20T01:24:59;9.27;;;5.67;;
16826;SDS011;8530;49.540;8.576;2023-08-20T01:27:38;9.37;;;6.90;;
16826;SDS011;8530;49.540;8.576;2023-08-20T01:30:13;11.50;;;7.73;;
16826;SDS011;8530;49.540;8.576;2023-08-20T01:32:41;7.10;;;6.40;;
16826;SDS011;8530;49.540;8.576;2023-08-20T01:35:08;8.13;;;6.37;;
16826;SDS011;8530;49.540;8.576;2023-08-20T01:37:39;6.10;;;5.50;;
16826;SDS011;8530;49.540;8.576;2023-08-20T01:40:06;10.20;;;6.30;;
16826;SDS011;8530;49.540;8.576;2023-08-20T01:42:35;8.37;;;7.07;;
16826;SDS011;8530;49.540;8.576;2023-08-20T01:45:04;9.23;;;6.60;;
16826;SDS011;8530;49.540;8.576;2023-08-20T01:47:33;8.10;;;7.13;;
16826;SDS011;8530;49.540;8.576;2023-08-20T01:50:00;9.33;;;6.37;;
16826;SDS011;8530;49.540;8.576;2023-08-20T01:52:27;11.03;;;6.90;;
16826;SDS011;8530;49.540;8.576;2023-08-20T01:54:54;8.60;;;6.60;;
16826;SDS011;8530;49.540;8.576;2023-08-20T01:57:21;8.27;;;6.60;;
16826;SDS011;8530;49.540;8.576;2023-08-20T01:59:48;11.10;;;8.03;;
16826;SDS011;8530;49.540;8.576;2023-08-20T02:02:14;6.17;;;5.57;;
16826;SDS011;8530;49.540;8.576;2023-08-20T02:04:42;8.30;;;6.63;;
16826;SDS011;8530;49.540;8.576;2023-08-20T02:07:09;6.93;;;6.10;;
16826;SDS011;8530;49.540;8.576;2023-08-20T02:09:36;7.57;;;5.70;;
16826;SDS011;8530;49.540;8.576;2023-08-20T02:12:03;7.37;;;6.67;;
16826;SDS011;8530;49.540;8.576;2023-08-20T02:14:30;7.03;;;6.40;;
16826;SDS011;8530;49.540;8.576;2023-08-20T02:16:59;6.83;;;5.80;;
16826;SDS011;8530;49.540;8.576;2023-08-20T02:19:26;6.30;;;5.70;;
16826;SDS011;8530;49.540;8.576;2023-08-20T02:21:54;7.40;;;6.57;;
16826;SDS011;8530;49.540;8.576;2023-08-20T02:24:21;10.50;;;6.60;;
16826;SDS011;8530;49.540;8.576;2023-08-20T02:26:48;7.37;;;6.60;;
16826;SDS011;8530;49.540;8.576;2023-08-20T02:29:14;8.33;;;7.53;;
16826;SDS011;8530;49.540;8.576;2023-08-20T02:31:41;6.93;;;6.23;;
16826;SDS011;8530;49.540;8.576;2023-08-20T02:34:08;9.27;;;6.53;;
16826;SDS011;8530;49.540;8.576;2023-08-20T02:36:35;10.53;;;7.43;;
16826;SDS011;8530;49.540;8.576;2023-08-20T02:39:03;8.60;;;6.97;;
16826;SDS011;8530;49.540;8.576;2023-08-20T02:41:32;11.40;;;7.47;;
16826;SDS011;8530;49.540;8.576;2023-08-20T02:43:59;10.23;;;7.97;;
16826;SDS011;8530;49.540;8.576;2023-08-20T02:46:26;17.93;;;7.70;;
16826;SDS011;8530;49.540;8.576;2023-08-20T02:48:52;10.40;;;8.03;;
16826;SDS011;8530;49.540;8.576;2023-08-20T02:51:19;10.37;;;7.97;;
16826;SDS011;8530;49.540;8.576;2023-08-20T02:53:46;10.90;;;8.10;;
16826;SDS011;8530;49.540;8.576;2023-08-20T02:56:14;7.60;;;6.80;;
16826;SDS011;8530;49.540;8.576;2023-08-20T02:58:40;8.53;;;7.33;;
16826;SDS011;8530;49.540;8.576;2023-08-20T03:01:14;10.53;;;6.80;;
16826;SDS011;8530;49.540;8.576;2023-08-20T03:03:44;7.90;;;7.10;;
16826;SDS011;8530;49.540;8.576;2023-08-20T03:06:10;10.03;;;7.20;;
16826;SDS011;8530;49.540;8.576;2023-08-20T03:08:37;9.40;;;7.40;;
16826;SDS011;8530;49.540;8.576;2023-08-20T03:11:04;9.50;;;7.97;;
16826;SDS011;8530;49.540;8.576;2023-08-20T03:13:32;14.37;;;7.80;;
16826;SDS011;8530;49.540;8.576;2023-08-20T03:15:59;12.20;;;7.97;;
16826;SDS011;8530;49.540;8.576;2023-08-20T03:18:25;9.67;;;7.60;;
16826;SDS011;8530;49.540;8.576;2023-08-20T03:20:53;9.47;;;8.43;;
16826;SDS011;8530;49.540;8.576;2023-08-20T03:23:20;9.70;;;7.87;;
16826;SDS011;8530;49.540;8.576;2023-08-20T03:25:47;9.70;;;8.47;;
16826;SDS011;8530;49.540;8.576;2023-08-20T03:28:13;9.40;;;8.30;;
16826;SDS011;8530;49.540;8.576;2023-08-20T03:30:42;12.50;;;9.13;;
16826;SDS011;8530;49.540;8.576;2023-08-20T03:33:08;8.87;;;8.07;;
16826;SDS011;8530;49.540;8.576;2023-08-20T03:35:35;11.80;;;8.07;;
16826;SDS011;8530;49.540;8.576;2023-08-20T03:38:02;10.83;;;9.53;;
16826;SDS011;8530;49.540;8.576;2023-08-20T03:40:29;9.57;;;8.60;;
16826;SDS011;8530;49.540;8.576;2023-08-20T03:42:55;14.37;;;9.27;;
16826;SDS011;8530;49.540;8.576;2023-08-20T03:45:22;9.10;;;8.20;;
16826;SDS011;8530;49.540;8.576;2023-08-20T03:47:50;9.73;;;8.73;;
16826;SDS011;8530;49.540;8.576;2023-08-20T03:50:17;12.90;;;9.27;;
16826;SDS011;8530;49.540;8.576;2023-08-20T03:52:43;17.10;;;8.67;;
16826;SDS011;8530;49.540;8.576;2023-08-20T03:55:10;10.60;;;8.93;;
16826;SDS011;8530;49.540;8.576;2023-08-20T03:57:37;12.50;;;8.13;;
16826;SDS011;8530;49.540;8.576;2023-08-20T04:00:04;9.80;;;8.40;;
16826;SDS011;8530;49.540;8.576;2023-08-20T04:02:34;8.20;;;7.40;;
16826;SDS011;8530;49.540;8.576;2023-08-20T04:05:02;15.63;;;8.13;;
16826;SDS011;8530;49.540;8.576;2023-08-20T04:07:29;9.10;;;8.20;;
16826;SDS011;8530;49.540;8.576;2023-08-20T04:09:56;9.10;;;8.20;;
16826;SDS011;8530;49.540;8.576;2023-08-20T04:12:23;16.00;;;9.67;;
16826;SDS011;8530;49.540;8.576;2023-08-20T04:14:49;8.73;;;7.50;;
16826;SDS011;8530;49.540;8.576;2023-08-20T04:17:16;12.33;;;7.60;;
16826;SDS011;8530;49.540;8.576;2023-08-20T04:19:43;14.67;;;9.57;;
16826;SDS011;8530;49.540;8.576;2023-08-20T04:22:11;10.10;;;8.30;;
16826;SDS011;8530;49.540;8.576;2023-08-20T04:24:38;10.60;;;8.20;;
16826;SDS011;8530;49.540;8.576;2023-08-20T04:27:05;10.27;;;8.33;;
16826;SDS011;8530;49.540;8.576;2023-08-20T04:29:32;13.17;;;9.33;;
16826;SDS011;8530;49.540;8.576;2023-08-20T04:31:59;13.90;;;9.60;;
16826;SDS011;8530;49.540;8.576;2023-08-20T04:34:26;11.97;;;9.50;;
16826;SDS011;8530;49.540;8.576;2023-08-20T04:36:52;15.93;;;9.17;;
16826;SDS011;8530;49.540;8.576;2023-08-20T04:39:20;9.70;;;8.70;;
16826;SDS011;8530;49.540;8.576;2023-08-20T04:41:47;11.40;;;8.97;;
16826;SDS011;8530;49.540;8.576;2023-08-20T04:44:14;10.13;;;9.13;;
16826;SDS011;8530;49.540;8.576;2023-08-20T04:46:40;8.00;;;7.20;;
16826;SDS011;8530;49.540;8.576;2023-08-20T04:49:08;8.07;;;7.23;;
16826;SDS011;8530;49.540;8.576;2023-08-20T04:51:34;10.33;;;8.77;;
16826;SDS011;8530;49.540;8.576;2023-08-20T04:57:25;8.43;;;7.63;;
16826;SDS011;8530;49.540;8.576;2023-08-20T04:59:52;11.60;;;7.70;;
16826;SDS011;8530;49.540;8.576;2023-08-20T05:02:19;10.80;;;8.97;;
16826;SDS011;8530;49.540;8.576;2023-08-20T05:04:46;11.67;;;7.77;;
16826;SDS011;8530;49.540;8.576;2023-08-20T05:07:12;10.60;;;8.77;;
16826;SDS011;8530;49.540;8.576;2023-08-20T05:09:39;9.53;;;7.50;;
16826;SDS011;8530;49.540;8.576;2023-08-20T05:12:09;9.70;;;8.70;;
16826;SDS011;8530;49.540;8.576;2023-08-20T05:14:37;9.47;;;7.80;;
16826;SDS011;8530;49.540;8.576;2023-08-20T05:17:07;8.53;;;7.67;;
16826;SDS011;8530;49.540;8.576;2023-08-20T05:19:34;9.33;;;8.27;;
16826;SDS011;8530;49.540;8.576;2023-08-20T05:22:00;8.43;;;7.63;;
16826;SDS011;8530;49.540;8.576;2023-08-20T05:24:27;11.63;;;8.73;;
16826;SDS011;8530;49.540;8.576;2023-08-20T05:27:03;14.77;;;8.63;;
16826;SDS011;8530;49.540;8.576;2023-08-20T05:29:31;9.47;;;8.47;;
16826;SDS011;8530;49.540;8.576;2023-08-20T05:32:00;11.30;;;9.30;;
16826;SDS011;8530;49.540;8.576;2023-08-20T05:34:27;9.70;;;8.80;;
16826;SDS011;8530;49.540;8.576;2023-08-20T05:36:53;10.03;;;8.40;;
16826;SDS011;8530;49.540;8.576;2023-08-20T05:39:20;11.53;;;8.63;;
16826;SDS011;8530;49.540;8.576;2023-08-20T05:41:48;11.00;;;9.30;;
16826;SDS011;8530;49.540;8.576;2023-08-20T05:44:14;10.33;;;8.30;;
16826;SDS011;8530;49.540;8.576;2023-08-20T05:46:42;9.07;;;8.00;;
16826;SDS011;8530;49.540;8.576;2023-08-20T05:49:11;17.30;;;10.00;;
16826;SDS011;8530;49.540;8.576;2023-08-20T05:51:38;12.00;;;8.33;;
16826;SDS011;8530;49.540;8.576;2023-08-20T05:54:05;11.50;;;9.50;;
16826;SDS011;8530;49.540;8.576;2023-08-20T05:56:32;15.60;;;9.93;;
16826;SDS011;8530;49.540;8.576;2023-08-20T05:58:59;14.07;;;9.43;;
16826;SDS011;8530;49.540;8.576;2023-08-20T06:01:25;10.00;;;8.17;;
16826;SDS011;8530;49.540;8.576;2023-08-20T06:03:52;10.23;;;8.40;;
16826;SDS011;8530;49.540;8.576;2023-08-20T06:06:20;10.00;;;7.90;;
16826;SDS011;8530;49.540;8.576;2023-08-20T06:08:47;10.97;;;8.83;;
16826;SDS011;8530;49.540;8.576;2023-08-20T06:11:14;44.90;;;8.17;;
16826;SDS011;8530;49.540;8.576;2023-08-20T06:13:41;9.53;;;8.20;;
16826;SDS011;8530;49.540;8.576;2023-08-20T06:16:10;14.47;;;9.27;;
16826;SDS011;8530;49.540;8.576;2023-08-20T06:18:36;14.20;;;8.27;;
16826;SDS011;8530;49.540;8.576;2023-08-20T06:21:03;13.00;;;7.80;;
16826;SDS011;8530;49.540;8.576;2023-08-20T06:23:32;9.60;;;7.30;;
16826;SDS011;8530;49.540;8.576;2023-08-20T06:25:58;7.90;;;6.77;;
16826;SDS011;8530;49.540;8.576;2023-08-20T06:28:25;8.07;;;7.23;;
16826;SDS011;8530;49.540;8.576;2023-08-20T06:30:52;8.00;;;7.20;;
16826;SDS011;8530;49.540;8.576;2023-08-20T06:33:19;9.30;;;6.40;;
16826;SDS011;8530;49.540;8.576;2023-08-20T06:35:46;10.10;;;6.32;;
16826;SDS011;8530;49.540;8.576;2023-08-20T06:38:12;8.18;;;5.90;;
16826;SDS011;8530;49.540;8.576;2023-08-20T06:40:40;13.10;;;5.85;;
16826;SDS011;8530;49.540;8.576;2023-08-20T06:43:07;7.88;;;5.47;;
16826;SDS011;8530;49.540;8.576;2023-08-20T06:45:34;9.98;;;6.35;;
16826;SDS011;8530;49.540;8.576;2023-08-20T06:48:01;7.93;;;6.22;;
16826;SDS011;8530;49.540;8.576;2023-08-20T06:50:27;7.38;;;5.72;;
16826;SDS011;8530;49.540;8.576;2023-08-20T06:52:54;7.45;;;5.50;;
16826;SDS011;8530;49.540;8.576;2023-08-20T06:55:23;8.13;;;6.32;;
16826;SDS011;8530;49.540;8.576;2023-08-20T06:57:51;8.00;;;5.43;;
16826;SDS011;8530;49.540;8.576;2023-08-20T07:00:18;8.77;;;5.65;;
16826;SDS011;8530;49.540;8.576;2023-08-20T07:02:45;8.65;;;5.53;;
16826;SDS011;8530;49.540;8.576;2023-08-20T07:05:12;6.85;;;4.85;;
16826;SDS011;8530;49.540;8.576;2023-08-20T07:07:39;11.80;;;6.25;;
16826;SDS011;8530;49.540;8.576;2023-08-20T07:10:06;14.65;;;7.18;;
16826;SDS011;8530;49.540;8.576;2023-08-20T07:12:33;9.95;;;6.03;;
16826;SDS011;8530;49.540;8.576;2023-08-20T07:15:01;7.20;;;5.80;;
16826;SDS011;8530;49.540;8.576;2023-08-20T07:17:28;7.88;;;5.72;;
16826;SDS011;8530;49.540;8.576;2023-08-20T07:19:55;6.35;;;5.45;;
16826;SDS011;8530;49.540;8.576;2023-08-20T07:22:22;8.30;;;5.47;;
16826;SDS011;8530;49.540;8.576;2023-08-20T07:24:49;7.60;;;4.85;;
16826;SDS011;8530;49.540;8.576;2023-08-20T07:27:15;9.88;;;6.05;;
16826;SDS011;8530;49.540;8.576;2023-08-20T07:29:42;10.60;;;6.63;;
16826;SDS011;8530;49.540;8.576;2023-08-20T07:32:10;9.43;;;5.80;;
16826;SDS011;8530;49.540;8.576;2023-08-20T07:34:37;7.35;;;6.30;;
16826;SDS011;8530;49.540;8.576;2023-08-20T07:37:04;6.78;;;4.93;;
16826;SDS011;8530;49.540;8.576;2023-08-20T07:39:31;6.38;;;5.00;;
16826;SDS011;8530;49.540;8.576;2023-08-20T07:41:58;11.80;;;5.30;;
16826;SDS011;8530;49.540;8.576;2023-08-20T07:44:25;8.60;;;4.97;;
16826;SDS011;8530;49.540;8.576;2023-08-20T07:46:53;4.78;;;4.13;;
16826;SDS011;8530;49.540;8.576;2023-08-20T07:49:21;6.50;;;4.88;;
16826;SDS011;8530;49.540;8.576;2023-08-20T07:51:47;6.00;;;4.70;;
16826;SDS011;8530;49.540;8.576;2023-08-20T07:54:17;6.68;;;4.22;;
16826;SDS011;8530;49.540;8.576;2023-08-20T07:56:44;7.15;;;4.43;;
16826;SDS011;8530;49.540;8.576;2023-08-20T07:59:10;5.40;;;4.50;;
16826;SDS011;8530;49.540;8.576;2023-08-20T08:01:37;10.52;;;5.47;;
16826;SDS011;8530;49.540;8.576;2023-08-20T08:04:04;7.95;;;4.22;;
16826;SDS011;8530;49.540;8.576;2023-08-20T08:06:32;3.80;;;3.50;;
16826;SDS011;8530;49.540;8.576;2023-08-20T08:09:14;6.00;;;4.18;;
16826;SDS011;8530;49.540;8.576;2023-08-20T08:11:44;4.88;;;4.22;;
16826;SDS011;8530;49.540;8.576;2023-08-20T08:14:10;5.40;;;4.60;;
16826;SDS011;8530;49.540;8.576;2023-08-20T08:16:40;5.38;;;4.72;;
16826;SDS011;8530;49.540;8.576;2023-08-20T08:19:07;4.95;;;4.20;;
16826;SDS011;8530;49.540;8.576;2023-08-20T08:21:35;5.50;;;4.30;;
16826;SDS011;8530;49.540;8.576;2023-08-20T08:24:01;10.15;;;5.80;;
16826;SDS011;8530;49.540;8.576;2023-08-20T08:26:28;9.27;;;4.72;;
16826;SDS011;8530;49.540;8.576;2023-08-20T08:28:55;7.93;;;4.50;;
16826;SDS011;8530;49.540;8.576;2023-08-20T08:31:22;6.95;;;4.75;;
16826;SDS011;8530;49.540;8.576;2023-08-20T08:33:50;5.85;;;4.10;;
16826;SDS011;8530;49.540;8.576;2023-08-20T08:36:17;8.27;;;5.10;;
16826;SDS011;8530;49.540;8.576;2023-08-20T08:38:46;7.85;;;4.68;;
16826;SDS011;8530;49.540;8.576;2023-08-20T08:41:13;6.72;;;5.95;;
16826;SDS011;8530;49.540;8.576;2023-08-20T08:43:41;11.07;;;5.07;;
16826;SDS011;8530;49.540;8.576;2023-08-20T08:46:11;14.65;;;5.82;;
16826;SDS011;8530;49.540;8.576;2023-08-20T08:48:39;6.32;;;4.80;;
16826;SDS011;8530;49.540;8.576;2023-08-20T08:51:07;12.98;;;5.43;;
16826;SDS011;8530;49.540;8.576;2023-08-20T08:53:34;8.80;;;5.55;;
16826;SDS011;8530;49.540;8.576;2023-08-20T08:56:03;13.20;;;5.65;;
16826;SDS011;8530;49.540;8.576;2023-08-20T08:58:30;12.32;;;5.07;;
16826;SDS011;8530;49.540;8.576;2023-08-20T09:00:58;8.23;;;5.50;;
16826;SDS011;8530;49.540;8.576;2023-08-20T09:03:25;7.65;;;5.70;;
16826;SDS011;8530;49.540;8.576;2023-08-20T09:05:54;8.75;;;6.05;;
16826;SDS011;8530;49.540;8.576;2023-08-20T09:08:22;11.07;;;6.68;;
16826;SDS011;8530;49.540;8.576;2023-08-20T09:10:52;12.32;;;6.53;;
16826;SDS011;8530;49.540;8.576;2023-08-20T09:13:25;8.27;;;6.07;;
16826;SDS011;8530;49.540;8.576;2023-08-20T09:15:58;14.17;;;8.50;;
16826;SDS011;8530;49.540;8.576;2023-08-20T09:18:25;7.53;;;5.63;;
16826;SDS011;8530;49.540;8.576;2023-08-20T09:20:52;9.32;;;6.53;;
16826;SDS011;8530;49.540;8.576;2023-08-20T09:23:19;9.00;;;6.20;;
16826;SDS011;8530;49.540;8.576;2023-08-20T09:25:46;9.30;;;5.70;;
16826;SDS011;8530;49.540;8.576;2023-08-20T09:28:13;7.30;;;6.60;;
16826;SDS011;8530;49.540;8.576;2023-08-20T09:30:41;8.77;;;5.90;;
16826;SDS011;8530;49.540;8.576;2023-08-20T09:33:21;7.83;;;5.43;;
16826;SDS011;8530;49.540;8.576;2023-08-20T09:35:48;9.33;;;7.07;;
16826;SDS011;8530;49.540;8.576;2023-08-20T09:38:16;9.67;;;5.57;;
16826;SDS011;8530;49.540;8.576;2023-08-20T09:40:46;12.10;;;6.13;;
16826;SDS011;8530;49.540;8.576;2023-08-20T09:43:15;8.80;;;5.80;;
16826;SDS011;8530;49.540;8.576;2023-08-20T09:45:44;12.53;;;7.27;;
16826;SDS011;8530;49.540;8.576;2023-08-20T09:48:13;11.00;;;6.40;;
16826;SDS011;8530;49.540;8.576;2023-08-20T09:50:44;10.33;;;6.60;;
16826;SDS011;8530;49.540;8.576;2023-08-20T09:53:15;10.63;;;5.30;;
16826;SDS011;8530;49.540;8.576;2023-08-20T09:55:48;7.90;;;6.00;;
16826;SDS011;8530;49.540;8.576;2023-08-20T09:58:16;9.90;;;6.77;;
16826;SDS011;8530;49.540;8.576;2023-08-20T10:00:48;6.97;;;5.27;;
16826;SDS011;8530;49.540;8.576;2023-08-20T10:03:16;8.20;;;6.30;;
16826;SDS011;8530;49.540;8.576;2023-08-20T10:05:45;7.67;;;6.10;;
16826;SDS011;8530;49.540;8.576;2023-08-20T10:08:14;7.03;;;6.13;;
16826;SDS011;8530;49.540;8.576;2023-08-20T10:10:41;9.90;;;5.80;;
16826;SDS011;8530;49.540;8.576;2023-08-20T10:13:08;12.47;;;5.57;;
16826;SDS011;8530;49.540;8.576;2023-08-20T10:15:35;9.47;;;6.03;;
16826;SDS011;8530;49.540;8.576;2023-08-20T10:18:07;7.93;;;6.10;;
16826;SDS011;8530;49.540;8.576;2023-08-20T10:20:34;9.37;;;6.50;;
16826;SDS011;8530;49.540;8.576;2023-08-20T10:23:01;7.07;;;5.13;;
16826;SDS011;8530;49.540;8.576;2023-08-20T10:25:29;6.40;;;5.80;;
16826;SDS011;8530;49.540;8.576;2023-08-20T10:28:10;6.70;;;5.70;;
16826;SDS011;8530;49.540;8.576;2023-08-20T10:30:39;7.50;;;6.20;;
16826;SDS011;8530;49.540;8.576;2023-08-20T10:33:31;9.67;;;5.30;;
16826;SDS011;8530;49.540;8.576;2023-08-20T10:35:58;8.30;;;6.10;;
16826;SDS011;8530;49.540;8.576;2023-08-20T10:38:35;9.70;;;5.37;;
16826;SDS011;8530;49.540;8.576;2023-08-20T10:41:04;8.73;;;4.97;;
16826;SDS011;8530;49.540;8.576;2023-08-20T10:43:33;8.40;;;6.10;;
16826;SDS011;8530;49.540;8.576;2023-08-20T10:46:04;6.63;;;5.43;;
16826;SDS011;8530;49.540;8.576;2023-08-20T10:48:45;6.97;;;5.47;;
16826;SDS011;8530;49.540;8.576;2023-08-20T10:51:14;5.60;;;4.93;;
16826;SDS011;8530;49.540;8.576;2023-08-20T10:53:42;5.43;;;4.93;;
16826;SDS011;8530;49.540;8.576;2023-08-20T10:56:14;7.65;;;5.25;;
16826;SDS011;8530;49.540;8.576;2023-08-20T10:58:42;5.60;;;4.67;;
16826;SDS011;8530;49.540;8.576;2023-08-20T11:01:14;7.23;;;4.77;;
16826;SDS011;8530;49.540;8.576;2023-08-20T11:03:47;7.03;;;5.70;;
16826;SDS011;8530;49.540;8.576;2023-08-20T11:06:15;8.07;;;4.73;;
16826;SDS011;8530;49.540;8.576;2023-08-20T11:08:42;9.60;;;4.27;;
16826;SDS011;8530;49.540;8.576;2023-08-20T11:11:09;6.60;;;4.87;;
16826;SDS011;8530;49.540;8.576;2023-08-20T11:13:36;6.60;;;5.10;;
16826;SDS011;8530;49.540;8.576;2023-08-20T11:16:03;6.00;;;5.13;;
16826;SDS011;8530;49.540;8.576;2023-08-20T11:18:32;6.07;;;5.20;;
16826;SDS011;8530;49.540;8.576;2023-08-20T11:21:01;7.50;;;4.43;;
16826;SDS011;8530;49.540;8.576;2023-08-20T11:23:28;5.43;;;4.00;;
16826;SDS011;8530;49.540;8.576;2023-08-20T11:25:55;8.65;;;4.65;;
16826;SDS011;8530;49.540;8.576;2023-08-20T11:28:22;4.95;;;4.45;;
16826;SDS011;8530;49.540;8.576;2023-08-20T11:30:50;10.20;;;5.33;;
16826;SDS011;8530;49.540;8.576;2023-08-20T11:33:17;6.43;;;5.05;;
16826;SDS011;8530;49.540;8.576;2023-08-20T11:35:44;5.18;;;4.38;;
16826;SDS011;8530;49.540;8.576;2023-08-20T11:38:12;6.40;;;4.80;;
16826;SDS011;8530;49.540;8.576;2023-08-20T11:40:40;7.00;;;4.82;;
16826;SDS011;8530;49.540;8.576;2023-08-20T11:43:06;6.05;;;4.82;;
16826;SDS011;8530;49.540;8.576;2023-08-20T11:45:33;9.52;;;4.57;;
16826;SDS011;8530;49.540;8.576;2023-08-20T11:48:10;4.93;;;4.00;;
16826;SDS011;8530;49.540;8.576;2023-08-20T11:50:37;5.90;;;4.85;;
16826;SDS011;8530;49.540;8.576;2023-08-20T11:53:05;6.90;;;4.97;;
16826;SDS011;8530;49.540;8.576;2023-08-20T11:55:34;6.88;;;5.80;;
16826;SDS011;8530;49.540;8.576;2023-08-20T11:58:01;6.93;;;4.50;;
16826;SDS011;8530;49.540;8.576;2023-08-20T12:00:29;6.18;;;5.10;;
16826;SDS011;8530;49.540;8.576;2023-08-20T12:02:57;5.22;;;4.20;;
16826;SDS011;8530;49.540;8.576;2023-08-20T12:05:26;7.60;;;4.35;;
16826;SDS011;8530;49.540;8.576;2023-08-20T12:07:57;5.05;;;4.05;;
16826;SDS011;8530;49.540;8.576;2023-08-20T12:10:25;7.45;;;4.38;;
16826;SDS011;8530;49.540;8.576;2023-08-20T12:12:53;10.48;;;4.40;;
16826;SDS011;8530;49.540;8.576;2023-08-20T12:15:21;7.90;;;3.92;;
16826;SDS011;8530;49.540;8.576;2023-08-20T12:17:55;7.82;;;4.60;;
16826;SDS011;8530;49.540;8.576;2023-08-20T12:20:27;8.32;;;4.97;;
16826;SDS011;8530;49.540;8.576;2023-08-20T12:22:57;4.57;;;3.60;;
16826;SDS011;8530;49.540;8.576;2023-08-20T12:25:25;11.88;;;5.18;;
16826;SDS011;8530;49.540;8.576;2023-08-20T12:27:51;8.93;;;4.38;;
16826;SDS011;8530;49.540;8.576;2023-08-20T12:30:19;5.80;;;5.07;;
16826;SDS011;8530;49.540;8.576;2023-08-20T12:32:46;7.38;;;4.82;;
16826;SDS011;8530;49.540;8.576;2023-08-20T12:35:13;19.45;;;4.72;;
16826;SDS011;8530;49.540;8.576;2023-08-20T12:37:40;6.70;;;4.32;;
16826;SDS011;8530;49.540;8.576;2023-08-20T12:40:07;5.00;;;4.47;;
16826;SDS011;8530;49.540;8.576;2023-08-20T12:42:35;6.25;;;4.13;;
16826;SDS011;8530;49.540;8.576;2023-08-20T12:45:04;8.18;;;4.47;;
16826;SDS011;8530;49.540;8.576;2023-08-20T12:47:32;7.20;;;4.93;;
16826;SDS011;8530;49.540;8.576;2023-08-20T12:49:59;4.50;;;4.05;;
16826;SDS011;8530;49.540;8.576;2023-08-20T12:52:25;10.07;;;4.95;;
16826;SDS011;8530;49.540;8.576;2023-08-20T12:54:52;4.60;;;4.15;;
16826;SDS011;8530;49.540;8.576;2023-08-20T12:57:19;7.15;;;4.05;;
16826;SDS011;8530;49.540;8.576;2023-08-20T12:59:45;6.60;;;5.28;;
16826;SDS011;8530;49.540;8.576;2023-08-20T13:02:13;5.97;;;4.05;;
16826;SDS011;8530;49.540;8.576;2023-08-20T13:04:40;6.28;;;3.90;;
16826;SDS011;8530;49.540;8.576;2023-08-20T13:07:08;5.72;;;3.67;;
16826;SDS011;8530;49.540;8.576;2023-08-20T13:09:35;7.00;;;3.97;;
16826;SDS011;8530;49.540;8.576;2023-08-20T13:12:02;5.28;;;3.80;;
16826;SDS011;8530;49.540;8.576;2023-08-20T13:14:34;6.68;;;4.00;;
16826;SDS011;8530;49.540;8.576;2023-08-20T13:17:01;6.65;;;4.40;;
16826;SDS011;8530;49.540;8.576;2023-08-20T13:19:29;6.85;;;3.78;;
16826;SDS011;8530;49.540;8.576;2023-08-20T13:21:56;17.75;;;4.75;;
16826;SDS011;8530;49.540;8.576;2023-08-20T13:24:23;11.55;;;4.38;;
16826;SDS011;8530;49.540;8.576;2023-08-20T13:26:50;7.00;;;4.10;;
16826;SDS011;8530;49.540;8.576;2023-08-20T13:29:17;6.07;;;4.35;;
16826;SDS011;8530;49.540;8.576;2023-08-20T13:31:46;7.40;;;4.03;;
16826;SDS011;8530;49.540;8.576;2023-08-20T13:34:13;5.03;;;4.38;;
16826;SDS011;8530;49.540;8.576;2023-08-20T13:36:41;9.55;;;3.58;;
16826;SDS011;8530;49.540;8.576;2023-08-20T13:39:08;5.78;;;3.83;;
16826;SDS011;8530;49.540;8.576;2023-08-20T13:41:38;5.97;;;4.38;;
16826;SDS011;8530;49.540;8.576;2023-08-20T13:44:05;6.15;;;3.80;;
16826;SDS011;8530;49.540;8.576;2023-08-20T13:46:32;5.53;;;3.83;;
16826;SDS011;8530;49.540;8.576;2023-08-20T13:48:59;6.40;;;4.65;;
16826;SDS011;8530;49.540;8.576;2023-08-20T13:51:26;5.05;;;4.15;;
16826;SDS011;8530;49.540;8.576;2023-08-20T13:53:54;6.30;;;4.25;;
16826;SDS011;8530;49.540;8.576;2023-08-20T13:56:20;5.97;;;3.78;;
16826;SDS011;8530;49.540;8.576;2023-08-20T13:58:47;5.10;;;4.03;;
16826;SDS011;8530;49.540;8.576;2023-08-20T14:01:14;6.05;;;4.65;;
16826;SDS011;8530;49.540;8.576;2023-08-20T14:03:41;9.80;;;4.30;;
16826;SDS011;8530;49.540;8.576;2023-08-20T14:06:08;7.43;;;4.45;;
16826;SDS011;8530;49.540;8.576;2023-08-20T14:08:34;4.60;;;3.80;;
16826;SDS011;8530;49.540;8.576;2023-08-20T14:11:02;5.88;;;4.03;;
16826;SDS011;8530;49.540;8.576;2023-08-20T14:13:29;8.38;;;4.47;;
16826;SDS011;8530;49.540;8.576;2023-08-20T14:15:56;7.15;;;4.45;;
16826;SDS011;8530;49.540;8.576;2023-08-20T14:18:23;8.93;;;4.25;;
16826;SDS011;8530;49.540;8.576;2023-08-20T14:20:51;13.27;;;5.13;;
16826;SDS011;8530;49.540;8.576;2023-08-20T14:23:17;5.60;;;4.30;;
16826;SDS011;8530;49.540;8.576;2023-08-20T14:25:44;5.15;;;3.60;;
16826;SDS011;8530;49.540;8.576;2023-08-20T14:28:12;8.70;;;4.45;;
16826;SDS011;8530;49.540;8.576;2023-08-20T14:30:39;9.40;;;4.38;;
16826;SDS011;8530;49.540;8.576;2023-08-20T14:33:06;5.18;;;3.63;;
16826;SDS011;8530;49.540;8.576;2023-08-20T14:35:32;5.45;;;4.40;;
16826;SDS011;8530;49.540;8.576;2023-08-20T14:37:59;7.78;;;5.55;;
16826;SDS011;8530;49.540;8.576;2023-08-20T14:40:26;5.40;;;4.30;;
16826;SDS011;8530;49.540;8.576;2023-08-20T14:42:53;5.95;;;3.78;;
16826;SDS011;8530;49.540;8.576;2023-08-20T14:45:21;4.95;;;4.13;;
16826;SDS011;8530;49.540;8.576;2023-08-20T14:47:48;5.60;;;4.10;;
16826;SDS011;8530;49.540;8.576;2023-08-20T14:50:14;5.70;;;4.43;;
16826;SDS011;8530;49.540;8.576;2023-08-20T14:52:41;5.05;;;4.50;;
16826;SDS011;8530;49.540;8.576;2023-08-20T14:55:08;4.65;;;4.18;;
16826;SDS011;8530;49.540;8.576;2023-08-20T14:57:35;8.77;;;4.55;;
16826;SDS011;8530;49.540;8.576;2023-08-20T15:00:03;6.15;;;4.80;;
16826;SDS011;8530;49.540;8.576;2023-08-20T15:02:35;6.82;;;3.53;;
16826;SDS011;8530;49.540;8.576;2023-08-20T15:05:01;4.53;;;3.65;;